Time;durP1;ratioP1;P1;durP2;ratioP2;P2;SDS_P1;SDS_P2;PMS_P1;PMS_P2;Temp;Humidity;BMP_temperature;BMP_pressure;BME280_temperature;BME280_humidity;BME280_pressure;Samples;Min_cycle;Max_cycle;Signal;HPM_P1;HPM_P2
2024/01/28 00:04:36;;;;;;;13.30;6.20;;;12.80;99.90;;;;;;10444405;28;20230;-86
2024/01/28 00:09:39;;;;;;;11.93;5.33;;;12.60;99.90;;;;;;10449123;28;20258;-86
2024/01/28 00:14:42;;;;;;;14.67;4.97;;;12.60;99.90;;;;;;10449084;28;20222;-86
2024/01/28 00:19:44;;;;;;;13.13;5.20;;;12.90;99.90;;;;;;10448412;28;20226;-86
2024/01/28 00:24:47;;;;;;;16.27;6.13;;;12.90;99.90;;;;;;10446164;28;20234;-86
2024/01/28 00:29:50;;;;;;;10.53;4.83;;;12.60;99.90;;;;;;10448596;28;20312;-86
2024/01/28 00:34:52;;;;;;;11.00;5.30;;;12.70;99.90;;;;;;10446945;28;20602;-86
2024/01/28 00:39:55;;;;;;;14.17;5.40;;;12.90;99.90;;;;;;10447118;28;20246;-86
2024/01/28 00:44:57;;;;;;;15.90;5.23;;;12.20;99.90;;;;;;10459508;28;20622;-86
2024/01/28 00:50:00;;;;;;;11.13;5.07;;;12.00;99.90;;;;;;10461902;28;20250;-86
2024/01/28 00:55:03;;;;;;;14.30;5.53;;;11.80;99.90;;;;;;10460554;28;20691;-86
2024/01/28 01:00:06;;;;;;;19.00;5.67;;;11.30;99.90;;;;;;10461937;28;20265;-86
2024/01/28 01:05:09;;;;;;;14.97;5.87;;;11.20;99.90;;;;;;10461565;28;20268;-86
2024/01/28 01:10:12;;;;;;;15.73;5.53;;;11.20;99.90;;;;;;10460519;28;20288;-86
2024/01/28 01:15:14;;;;;;;14.77;5.00;;;11.20;99.90;;;;;;10461044;28;20285;-86
2024/01/28 01:20:17;;;;;;;13.27;5.27;;;11.60;99.90;;;;;;10461443;28;20304;-86
2024/01/28 01:25:20;;;;;;;13.60;4.43;;;11.70;99.90;;;;;;10461521;28;20234;-86
2024/01/28 01:30:22;;;;;;;13.60;5.37;;;12.10;99.90;;;;;;10461679;28;20258;-86
2024/01/28 01:35:26;;;;;;;12.27;4.37;;;12.00;99.90;;;;;;10461325;28;20253;-86
2024/01/28 01:40:29;;;;;;;11.27;4.87;;;12.00;99.90;;;;;;10460694;28;20292;-86
2024/01/28 01:45:32;;;;;;;16.67;6.43;;;12.10;99.90;;;;;;10461687;28;20257;-86
2024/01/28 01:50:34;;;;;;;10.23;5.00;;;11.70;99.90;;;;;;10461040;28;20254;-86
2024/01/28 01:55:39;;;;;;;9.43;5.13;;;11.30;99.90;;;;;;10455616;28;20242;-86
2024/01/28 02:00:42;;;;;;;14.83;5.20;;;11.70;99.90;;;;;;10452906;28;20691;-86
2024/01/28 02:05:45;;;;;;;18.30;5.93;;;11.10;99.90;;;;;;10454139;28;20262;-86
2024/01/28 02:10:49;;;;;;;10.80;4.13;;;11.00;99.90;;;;;;10452099;28;20280;-86
2024/01/28 02:15:51;;;;;;;8.83;4.97;;;10.60;99.90;;;;;;10453729;28;20231;-86
2024/01/28 02:20:53;;;;;;;8.23;4.63;;;10.90;99.90;;;;;;10453880;28;20281;-86
2024/01/28 02:25:56;;;;;;;11.27;4.60;;;11.10;99.90;;;;;;10453004;28;20625;-86
2024/01/28 02:30:59;;;;;;;11.00;4.80;;;11.20;99.90;;;;;;10453656;28;20258;-86
2024/01/28 02:36:01;;;;;;;13.87;6.17;;;10.90;99.90;;;;;;10453613;28;20223;-86
2024/01/28 02:41:04;;;;;;;12.60;5.43;;;10.70;99.90;;;;;;10452930;28;20307;-86
2024/01/28 02:46:07;;;;;;;12.17;5.77;;;10.70;99.90;;;;;;10451354;28;20636;-86
2024/01/28 02:51:10;;;;;;;11.70;6.17;;;10.50;99.90;;;;;;10452016;28;20640;-86
2024/01/28 02:56:16;;;;;;;13.47;6.27;;;10.70;99.90;;;;;;10452463;28;20667;-86
2024/01/28 03:01:18;;;;;;;13.83;6.20;;;10.40;99.90;;;;;;10452552;28;20223;-87
2024/01/28 03:06:21;;;;;;;8.80;4.13;;;10.30;99.90;;;;;;10450906;28;20266;-86
2024/01/28 03:11:24;;;;;;;11.20;5.30;;;9.90;99.90;;;;;;10451100;28;20679;-86
2024/01/28 03:16:26;;;;;;;9.80;5.40;;;9.60;99.90;;;;;;10451581;28;20222;-86
2024/01/28 03:21:30;;;;;;;11.70;4.50;;;9.40;99.90;;;;;;10451967;28;20234;-86
2024/01/28 03:26:35;;;;;;;11.67;5.30;;;9.20;99.90;;;;;;10451308;28;20246;-87
2024/01/28 03:31:40;;;;;;;16.37;5.40;;;9.00;99.90;;;;;;10433588;28;20974;-86
2024/01/28 03:36:43;;;;;;;11.53;4.70;;;9.00;99.90;;;;;;10450743;28;20280;-86
2024/01/28 03:41:46;;;;;;;13.73;4.23;;;9.10;99.90;;;;;;10450418;28;20231;-87
2024/01/28 03:46:48;;;;;;;18.57;5.93;;;9.30;99.90;;;;;;10450621;28;20280;-86
2024/01/28 03:51:51;;;;;;;10.93;4.60;;;9.40;99.90;;;;;;10450683;28;20285;-86
2024/01/28 03:56:53;;;;;;;10.60;4.97;;;9.50;99.90;;;;;;10448111;28;20246;-87
2024/01/28 04:01:56;;;;;;;8.97;5.13;;;9.70;99.90;;;;;;10449781;28;20296;-87
2024/01/28 04:06:59;;;;;;;11.17;4.87;;;10.00;99.90;;;;;;10447795;28;20639;-87
2024/01/28 04:12:03;;;;;;;11.83;5.27;;;10.00;99.90;;;;;;10448112;28;20254;-87
2024/01/28 04:17:06;;;;;;;11.10;5.90;;;10.00;99.90;;;;;;10449009;28;20257;-87
2024/01/28 04:22:12;;;;;;;12.67;5.40;;;10.00;99.90;;;;;;10448601;28;20276;-86
2024/01/28 04:27:14;;;;;;;14.07;4.77;;;9.70;99.90;;;;;;10447847;28;20234;-86
2024/01/28 04:32:17;;;;;;;12.60;5.00;;;10.00;99.90;;;;;;10448139;28;20782;-86
2024/01/28 04:37:20;;;;;;;15.37;5.00;;;10.20;99.90;;;;;;10449209;28;20328;-86
2024/01/28 04:42:22;;;;;;;7.40;3.30;;;10.20;99.90;;;;;;10448644;28;20692;-87
2024/01/28 04:47:25;;;;;;;7.70;4.17;;;11.00;99.90;;;;;;10448865;28;20284;-86
2024/01/28 04:52:27;;;;;;;11.23;4.13;;;11.10;99.90;;;;;;10448820;28;20250;-87
2024/01/28 04:57:30;;;;;;;14.13;4.60;;;10.90;99.90;;;;;;10448629;28;20234;-86
2024/01/28 05:02:33;;;;;;;10.47;4.47;;;11.00;99.90;;;;;;10448944;28;20231;-86
2024/01/28 05:07:35;;;;;;;9.03;3.40;;;11.00;99.90;;;;;;10448262;28;20270;-86
2024/01/28 05:12:38;;;;;;;6.70;4.20;;;10.90;99.90;;;;;;10448065;28;20254;-86
2024/01/28 05:17:40;;;;;;;5.20;3.47;;;10.80;99.90;;;;;;10448842;28;20253;-86
2024/01/28 05:22:43;;;;;;;17.67;4.50;;;11.10;99.90;;;;;;10447867;28;20288;-86
2024/01/28 05:27:46;;;;;;;18.87;6.67;;;10.80;99.90;;;;;;10446743;28;20714;-86
2024/01/28 05:32:50;;;;;;;8.43;4.03;;;11.00;99.90;;;;;;10455995;28;20251;-86
2024/01/28 05:37:52;;;;;;;9.27;4.83;;;10.90;99.90;;;;;;10456003;28;20235;-87
2024/01/28 05:42:55;;;;;;;14.27;4.07;;;10.80;99.90;;;;;;10454940;28;20195;-86
2024/01/28 05:48:01;;;;;;;6.77;3.60;;;10.70;99.90;;;;;;10455015;28;20242;-86
2024/01/28 05:53:04;;;;;;;9.47;4.53;;;10.50;99.90;;;;;;10453372;28;20648;-86
2024/01/28 05:58:07;;;;;;;11.03;4.23;;;9.70;99.90;;;;;;10454594;28;20234;-86
2024/01/28 06:03:10;;;;;;;8.53;3.93;;;9.10;99.90;;;;;;10454527;28;20246;-87
2024/01/28 06:08:13;;;;;;;11.47;4.03;;;8.80;99.90;;;;;;10453736;28;20287;-86
2024/01/28 06:13:16;;;;;;;8.80;3.83;;;9.10;99.90;;;;;;10454104;28;20308;-87
2024/01/28 06:18:19;;;;;;;14.40;4.77;;;8.90;99.90;;;;;;10454129;28;20231;-87
2024/01/28 06:23:22;;;;;;;9.20;4.73;;;9.40;99.90;;;;;;10453535;28;20238;-86
2024/01/28 06:28:24;;;;;;;9.53;3.53;;;9.20;99.90;;;;;;10453489;28;20226;-86
2024/01/28 06:33:28;;;;;;;11.63;5.67;;;9.00;99.90;;;;;;10453944;28;20304;-86
2024/01/28 06:38:31;;;;;;;11.60;3.77;;;8.70;99.90;;;;;;10453669;28;20234;-86
2024/01/28 06:43:33;;;;;;;14.50;5.03;;;8.10;99.90;;;;;;10451909;28;20288;-87
2024/01/28 06:48:35;;;;;;;7.80;3.67;;;7.50;99.90;;;;;;10452261;28;20606;-87
2024/01/28 06:53:38;;;;;;;10.10;4.20;;;7.30;99.90;;;;;;10451820;28;20254;-86
2024/01/28 06:58:43;;;;;;;9.30;4.37;;;7.90;99.90;;;;;;10452738;28;20223;-87
2024/01/28 07:03:46;;;;;;;24.50;10.57;;;7.50;99.90;;;;;;10452785;28;20261;-87
2024/01/28 07:08:48;;;;;;;21.87;9.60;;;7.60;99.90;;;;;;10450156;28;20276;-87
2024/01/28 07:13:51;;;;;;;16.57;7.23;;;7.20;99.90;;;;;;10450179;28;20250;-86
2024/01/28 07:18:54;;;;;;;25.80;12.37;;;7.50;99.90;;;;;;10451368;28;20231;-87
2024/01/28 07:23:57;;;;;;;12.53;5.83;;;7.80;99.90;;;;;;10451551;28;20620;-87
2024/01/28 07:29:00;;;;;;;13.70;6.27;;;8.50;99.90;;;;;;10451699;28;20269;-86
2024/01/28 07:34:03;;;;;;;13.90;5.10;;;8.60;99.90;;;;;;10451026;28;20262;-86
2024/01/28 07:39:06;;;;;;;7.43;4.90;;;8.50;99.90;;;;;;10450914;28;20230;-86
2024/01/28 07:44:09;;;;;;;12.27;4.27;;;8.80;99.90;;;;;;10450049;28;20640;-85
2024/01/28 07:49:12;;;;;;;10.03;4.50;;;9.40;99.90;;;;;;10449978;28;20308;-86
2024/01/28 07:54:14;;;;;;;13.23;5.33;;;9.50;99.90;;;;;;10410852;28;20263;-85
2024/01/28 07:59:17;;;;;;;8.33;3.97;;;9.60;99.90;;;;;;10408777;28;20297;-86
2024/01/28 08:04:20;;;;;;;11.33;6.03;;;9.60;99.90;;;;;;10408358;28;20281;-86
2024/01/28 08:09:23;;;;;;;10.37;3.90;;;9.40;99.90;;;;;;10408128;28;20263;-85
2024/01/28 08:14:27;;;;;;;8.03;4.30;;;9.90;99.90;;;;;;10407003;28;20278;-86
2024/01/28 08:19:31;;;;;;;9.53;4.43;;;10.40;99.90;;;;;;10408427;28;20281;-85
2024/01/28 08:24:34;;;;;;;12.00;5.27;;;10.80;99.90;;;;;;10408385;28;20235;-85
2024/01/28 08:29:38;;;;;;;12.43;5.80;;;11.00;99.90;;;;;;10408454;28;20606;-86
2024/01/28 08:34:41;;;;;;;9.17;5.23;;;10.60;99.90;;;;;;10407543;28;20262;-86
2024/01/28 08:39:44;;;;;;;5.37;3.67;;;10.40;99.90;;;;;;10407541;28;20261;-85
2024/01/28 08:44:46;;;;;;;15.30;6.13;;;11.10;99.90;;;;;;10407985;28;20223;-85
2024/01/28 08:49:50;;;;;;;11.37;5.17;;;10.70;99.90;;;;;;10407357;28;20620;-86
2024/01/28 08:54:53;;;;;;;9.40;4.47;;;9.90;99.90;;;;;;10406154;28;20251;-86
2024/01/28 08:59:55;;;;;;;17.13;8.17;;;9.80;99.90;;;;;;10398366;28;20293;-86
2024/01/28 09:04:58;;;;;;;16.10;9.00;;;9.40;99.90;;;;;;10372095;28;20709;-86
2024/01/28 09:10:01;;;;;;;12.67;5.63;;;8.90;99.90;;;;;;10374731;28;20275;-86
2024/01/28 09:15:03;;;;;;;12.73;5.80;;;8.70;99.90;;;;;;10411457;28;20251;-86
2024/01/28 09:20:07;;;;;;;9.57;5.17;;;8.80;99.90;;;;;;10415323;28;20253;-86
2024/01/28 09:25:09;;;;;;;7.83;4.00;;;8.90;99.90;;;;;;10413883;28;20227;-85
2024/01/28 09:30:12;;;;;;;8.10;4.27;;;9.30;99.90;;;;;;10414288;28;20284;-86
2024/01/28 09:35:15;;;;;;;8.83;3.87;;;9.50;99.90;;;;;;10413343;28;20300;-86
2024/01/28 09:40:18;;;;;;;6.13;4.07;;;9.40;99.90;;;;;;10413010;28;20709;-85
2024/01/28 09:45:21;;;;;;;11.63;4.80;;;10.20;99.90;;;;;;10412317;28;20552;-86
2024/01/28 09:50:24;;;;;;;11.27;5.93;;;9.00;99.90;;;;;;10412319;28;20231;-86
2024/01/28 09:55:26;;;;;;;11.13;5.83;;;8.00;99.90;;;;;;10412141;28;20247;-85
2024/01/28 10:00:29;;;;;;;9.80;6.07;;;8.90;99.90;;;;;;10411593;28;20223;-84
2024/01/28 10:05:32;;;;;;;11.10;6.17;;;9.10;99.90;;;;;;10411838;28;20295;-86
2024/01/28 10:10:35;;;;;;;14.07;6.80;;;10.00;99.90;;;;;;10411891;28;20254;-85
2024/01/28 10:15:38;;;;;;;7.97;4.47;;;9.70;99.90;;;;;;10411444;28;20247;-84
2024/01/28 10:20:41;;;;;;;9.30;5.40;;;10.80;99.90;;;;;;10406185;28;20277;-84
2024/01/28 10:25:44;;;;;;;8.20;5.70;;;11.20;99.90;;;;;;10412210;28;20623;-83
2024/01/28 10:30:50;;;;;;;7.30;5.63;;;10.30;99.90;;;;;;10400094;28;20231;-84
2024/01/28 10:35:53;;;;;;;14.00;8.30;;;9.80;99.90;;;;;;10410859;28;20244;-85
2024/01/28 10:40:57;;;;;;;12.17;6.43;;;9.20;99.90;;;;;;10410905;28;20297;-85
2024/01/28 10:46:01;;;;;;;9.17;5.17;;;9.10;99.90;;;;;;10411608;28;20232;-85
2024/01/28 10:51:04;;;;;;;10.57;5.13;;;10.30;99.90;;;;;;10411193;28;20231;-85
2024/01/28 10:56:07;;;;;;;7.77;4.63;;;11.30;99.90;;;;;;10411670;28;20243;-85
2024/01/28 11:01:11;;;;;;;6.17;4.50;;;11.20;99.90;;;;;;10409752;28;20219;-85
2024/01/28 11:06:16;;;;;;;9.63;5.63;;;11.20;99.90;;;;;;10410083;28;20899;-85
2024/01/28 11:11:19;;;;;;;11.33;5.13;;;11.50;99.90;;;;;;10410224;28;20243;-86
2024/01/28 11:16:22;;;;;;;6.57;4.33;;;12.00;99.90;;;;;;10410655;28;20231;-86
2024/01/28 11:21:26;;;;;;;9.23;5.07;;;11.60;99.90;;;;;;10410878;28;20745;-86
2024/01/28 11:26:36;;;;;;;11.63;7.03;;;10.60;99.90;;;;;;10409224;28;20254;-86
2024/01/28 11:31:44;;;;;;;15.60;7.30;;;10.30;99.90;;;;;;10408505;28;20251;-86
2024/01/28 11:36:52;;;;;;;13.63;7.63;;;10.10;99.90;;;;;;10408023;28;20223;-86
2024/01/28 11:41:54;;;;;;;9.50;4.57;;;9.90;99.90;;;;;;10408316;28;20607;-86
2024/01/28 11:46:57;;;;;;;6.93;4.73;;;11.00;99.90;;;;;;10408979;28;20227;-84
2024/01/28 11:52:00;;;;;;;5.93;3.83;;;11.30;99.90;;;;;;10408840;28;20292;-84
2024/01/28 11:57:02;;;;;;;6.03;4.07;;;11.10;99.90;;;;;;10406372;28;20701;-85
2024/01/28 12:02:05;;;;;;;9.57;4.43;;;10.80;99.90;;;;;;10406500;28;20254;-86
2024/01/28 12:07:08;;;;;;;7.97;4.73;;;10.70;99.90;;;;;;10407384;28;20263;-86
2024/01/28 12:12:11;;;;;;;9.37;4.40;;;10.30;99.90;;;;;;10408173;28;20255;-87
2024/01/28 12:17:14;;;;;;;12.03;6.10;;;11.20;99.90;;;;;;10406971;28;20285;-86
2024/01/28 12:22:16;;;;;;;9.83;5.87;;;11.10;99.90;;;;;;10406017;28;20641;-86
2024/01/28 12:27:19;;;;;;;10.30;7.07;;;10.90;99.90;;;;;;10407745;28;20293;-86
2024/01/28 12:32:22;;;;;;;7.37;5.03;;;10.80;99.90;;;;;;10407827;28;20277;-86
2024/01/28 12:37:24;;;;;;;8.73;4.97;;;11.10;99.90;;;;;;10407810;28;20670;-86
2024/01/28 12:42:30;;;;;;;9.53;5.50;;;11.00;99.90;;;;;;10406111;28;20675;-86
2024/01/28 12:47:34;;;;;;;8.53;4.60;;;11.20;99.90;;;;;;10405963;28;20663;-87
2024/01/28 12:52:37;;;;;;;7.57;5.43;;;11.50;99.90;;;;;;10406694;28;20337;-86
2024/01/28 12:57:39;;;;;;;8.67;4.40;;;11.30;99.90;;;;;;10407305;28;20224;-86
2024/01/28 13:02:43;;;;;;;5.53;3.70;;;11.30;99.90;;;;;;10405532;28;20235;-87
2024/01/28 13:07:45;;;;;;;8.13;3.73;;;10.80;99.90;;;;;;10405601;28;20297;-86
2024/01/28 13:12:49;;;;;;;8.03;4.23;;;11.30;99.90;;;;;;10405077;28;20263;-86
2024/01/28 13:17:51;;;;;;;4.30;3.57;;;11.60;99.90;;;;;;10417650;28;20238;-87
2024/01/28 13:23:03;;;;;;;7.09;4.47;;;11.50;99.90;;;;;;10377999;28;10000846;-86
2024/01/28 13:28:06;;;;;;;10.70;4.87;;;10.80;99.90;;;;;;10401815;28;20450;-86
2024/01/28 13:33:09;;;;;;;16.87;7.17;;;10.10;99.90;;;;;;10402217;28;20263;-85
2024/01/28 13:38:11;;;;;;;10.27;5.10;;;9.50;99.90;;;;;;10401599;28;20239;-85
2024/01/28 13:43:14;;;;;;;10.50;5.57;;;8.90;99.90;;;;;;10402008;28;20247;-85
2024/01/28 13:48:16;;;;;;;10.87;5.20;;;8.60;99.90;;;;;;10403936;28;20266;-85
2024/01/28 13:53:19;;;;;;;10.87;6.57;;;8.50;99.90;;;;;;10410398;28;20786;-85
2024/01/28 13:58:21;;;;;;;14.60;6.80;;;8.00;99.90;;;;;;10410876;28;20239;-85
2024/01/28 14:03:24;;;;;;;6.80;3.90;;;7.90;99.90;;;;;;10408524;28;20235;-85
2024/01/28 14:08:27;;;;;;;10.93;5.23;;;7.80;99.90;;;;;;10409433;28;20263;-86
2024/01/28 14:13:29;;;;;;;11.83;5.93;;;7.80;99.90;;;;;;10408240;28;20259;-86
2024/01/28 14:18:32;;;;;;;12.57;5.80;;;8.40;99.90;;;;;;10409858;28;20312;-85
2024/01/28 14:23:34;;;;;;;26.30;15.67;;;8.20;99.90;;;;;;10408016;28;20688;-85
2024/01/28 14:28:40;;;;;;;27.33;18.00;;;7.70;99.90;;;;;;10410303;28;21562;-85
2024/01/28 14:33:42;;;;;;;72.83;35.90;;;7.50;99.90;;;;;;10408399;28;20250;-86
2024/01/28 14:38:45;;;;;;;18.30;10.97;;;8.10;99.90;;;;;;10407927;28;20285;-85
2024/01/28 14:43:48;;;;;;;34.43;18.17;;;8.70;99.90;;;;;;10392624;28;20203;-85
2024/01/28 14:48:50;;;;;;;16.97;8.10;;;8.40;99.90;;;;;;10410794;28;20684;-86
2024/01/28 14:53:53;;;;;;;21.80;12.07;;;8.50;99.90;;;;;;10412176;28;20247;-86
2024/01/28 14:58:55;;;;;;;38.37;22.20;;;8.10;99.90;;;;;;10412093;28;20281;-86
2024/01/28 15:03:58;;;;;;;19.90;10.07;;;7.70;99.90;;;;;;10410727;28;20208;-86
2024/01/28 15:09:00;;;;;;;17.60;10.17;;;7.20;99.90;;;;;;10410558;28;20263;-86
2024/01/28 15:14:03;;;;;;;23.27;9.63;;;;;;;;;;10410156;28;20227;-86
2024/01/28 15:19:07;;;;;;;18.03;11.17;;;;;;;;;;10410273;28;20203;-86
2024/01/28 15:24:10;;;;;;;14.47;7.83;;;;;;;;;;10411439;28;20235;-86
2024/01/28 15:29:16;;;;;;;14.17;7.80;;;;;;;;;;10411250;28;20276;-86
2024/01/28 15:34:18;;;;;;;15.23;9.50;;;;;;;;;;10061547;28;9999849;-86
2024/01/28 15:39:21;;;;;;;16.93;10.33;;;;;;;;;;10406556;28;20250;-86
2024/01/28 15:44:24;;;;;;;23.50;13.07;;;5.10;99.90;;;;;;10406046;28;20700;-86
2024/01/28 15:49:27;;;;;;;18.47;11.00;;;5.00;99.90;;;;;;10407966;28;20226;-86
2024/01/28 15:54:30;;;;;;;21.43;11.60;;;4.40;99.90;;;;;;10405769;28;20718;-86
2024/01/28 15:59:35;;;;;;;23.93;13.33;;;4.10;99.90;;;;;;10407252;28;20231;-86
2024/01/28 16:04:37;;;;;;;34.07;17.83;;;4.00;99.90;;;;;;10406867;28;20234;-86
2024/01/28 16:09:40;;;;;;;29.97;16.53;;;4.50;99.90;;;;;;10406993;28;20261;-86
2024/01/28 16:14:53;;;;;;;29.37;16.50;;;5.10;99.90;;;;;;10405855;28;20675;-86
2024/01/28 16:19:56;;;;;;;22.47;14.37;;;5.00;99.90;;;;;;10406255;28;20223;-86
2024/01/28 16:24:59;;;;;;;19.87;13.47;;;5.10;99.90;;;;;;10405871;28;20892;-86
2024/01/28 16:30:02;;;;;;;21.07;13.63;;;4.90;99.90;;;;;;10406054;28;20298;-85
2024/01/28 16:35:05;;;;;;;32.10;19.20;;;4.70;99.90;;;;;;10407586;28;20254;-86
2024/01/28 16:40:13;;;;;;;37.10;20.70;;;4.70;99.90;;;;;;10403334;28;20293;-86
2024/01/28 16:45:16;;;;;;;29.40;18.63;;;4.50;99.90;;;;;;10374205;28;20250;-86
2024/01/28 16:50:19;;;;;;;35.23;20.90;;;4.20;99.90;;;;;;10406075;28;20237;-86
2024/01/28 16:55:24;;;;;;;33.07;18.27;;;4.10;99.90;;;;;;10407349;28;20263;-87
2024/01/28 17:00:27;;;;;;;28.53;16.07;;;4.10;99.90;;;;;;10404294;28;20277;-87
2024/01/28 17:05:31;;;;;;;24.90;13.77;;;3.80;99.90;;;;;;10404778;28;20238;-86
2024/01/28 17:10:34;;;;;;;27.30;18.97;;;3.40;99.90;;;;;;10404157;28;20237;-86
2024/01/28 17:15:36;;;;;;;36.07;22.83;;;3.70;99.90;;;;;;10373934;28;20930;-84
2024/01/28 17:20:40;;;;;;;47.70;26.70;;;2.20;99.90;;;;;;10403463;28;20335;-84
2024/01/28 17:25:42;;;;;;;50.27;29.00;;;1.40;99.90;;;;;;10409413;28;20235;-85
2024/01/28 17:30:45;;;;;;;48.37;32.90;;;1.00;99.90;;;;;;10414393;28;20231;-84
2024/01/28 17:35:47;;;;;;;47.57;30.90;;;0.80;99.90;;;;;;10414298;28;20320;-83
2024/01/28 17:40:52;;;;;;;48.20;30.93;;;0.60;99.90;;;;;;10411457;28;20227;-83
2024/01/28 17:45:56;;;;;;;70.87;43.63;;;0.50;99.90;;;;;;10412217;28;20257;-84
2024/01/28 17:50:58;;;;;;;90.68;61.10;;;0.40;99.90;;;;;;10427130;28;20882;-82
2024/01/28 17:56:01;;;;;;;73.73;49.53;;;0.30;99.90;;;;;;10413302;28;20285;-82
2024/01/28 18:01:06;;;;;;;65.40;38.87;;;0.30;99.90;;;;;;10413396;28;20219;-83
2024/01/28 18:06:11;;;;;;;125.67;70.70;;;0.20;99.90;;;;;;10410524;28;20263;-82
2024/01/28 18:11:15;;;;;;;121.40;71.17;;;0.20;99.90;;;;;;10412179;28;20212;-82
2024/01/28 18:16:18;;;;;;;89.57;58.80;;;-0.10;99.90;;;;;;10413092;28;20254;-82
2024/01/28 18:21:21;;;;;;;79.50;41.70;;;0.00;99.90;;;;;;10413085;28;20235;-83
2024/01/28 18:26:24;;;;;;;41.00;25.80;;;-0.10;99.90;;;;;;10414286;28;20684;-82
2024/01/28 18:31:26;;;;;;;45.23;27.03;;;-0.20;99.90;;;;;;10411357;28;20305;-82
2024/01/28 18:36:31;;;;;;;120.10;64.27;;;-0.20;99.90;;;;;;10411847;28;20251;-84
2024/01/28 18:41:34;;;;;;;116.00;64.43;;;-0.10;99.90;;;;;;10411744;28;20270;-84
2024/01/28 18:46:36;;;;;;;47.07;31.17;;;0.20;99.90;;;;;;10411252;28;20684;-84
2024/01/28 18:51:39;;;;;;;183.17;88.80;;;0.20;99.90;;;;;;10409942;28;20227;-85
2024/01/28 18:56:43;;;;;;;77.57;44.77;;;1.30;99.90;;;;;;10383389;28;20286;-85
2024/01/28 19:01:46;;;;;;;115.60;63.17;;;1.50;99.90;;;;;;10371116;28;20744;-86
2024/01/28 19:06:48;;;;;;;103.73;56.70;;;1.50;99.90;;;;;;10408782;28;20314;-85
2024/01/28 19:11:51;;;;;;;93.27;53.37;;;1.70;99.90;;;;;;10408411;28;20262;-85
2024/01/28 19:16:54;;;;;;;45.20;28.77;;;2.00;99.90;;;;;;10409716;28;20255;-85
2024/01/28 19:21:56;;;;;;;63.23;37.07;;;0.80;99.90;;;;;;10409085;28;20227;-85
2024/01/28 19:26:59;;;;;;;92.47;52.10;;;0.40;99.90;;;;;;10376865;28;20678;-85
2024/01/28 19:32:04;;;;;;;63.40;35.23;;;3.00;99.90;;;;;;10369212;28;20235;-85
2024/01/28 19:37:07;;;;;;;51.93;31.43;;;3.40;99.90;;;;;;10368994;28;20333;-85
2024/01/28 19:42:09;;;;;;;59.63;36.83;;;3.10;99.90;;;;;;10368554;28;20233;-85
2024/01/28 19:47:15;;;;;;;66.60;40.60;;;2.20;99.90;;;;;;10382581;28;20575;-85
2024/01/28 19:52:18;;;;;;;89.90;47.47;;;2.50;99.90;;;;;;10368871;28;20229;-85
2024/01/28 19:57:20;;;;;;;93.00;46.93;;;1.90;99.90;;;;;;10368167;28;20258;-85
2024/01/28 20:02:23;;;;;;;98.97;54.63;;;1.80;99.90;;;;;;10368143;28;20290;-85
2024/01/28 20:07:25;;;;;;;72.97;39.47;;;2.20;99.90;;;;;;10367498;28;20343;-85
2024/01/28 20:12:28;;;;;;;41.27;25.30;;;1.60;99.90;;;;;;10366706;28;20248;-85
2024/01/28 20:17:31;;;;;;;40.30;25.43;;;1.30;99.90;;;;;;10366091;28;20298;-85
2024/01/28 20:22:33;;;;;;;46.17;25.40;;;0.90;99.90;;;;;;10401546;28;20297;-86
2024/01/28 20:27:38;;;;;;;55.83;26.27;;;1.20;99.90;;;;;;10408433;28;20259;-85
2024/01/28 20:32:41;;;;;;;64.33;29.30;;;0.80;99.90;;;;;;10407088;28;20235;-85
2024/01/28 20:37:45;;;;;;;66.23;32.93;;;0.50;99.90;;;;;;10408607;28;20258;-85
2024/01/28 20:42:52;;;;;;;58.97;31.47;;;0.50;99.90;;;;;;10406219;28;20245;-85
2024/01/28 20:47:54;;;;;;;53.30;28.60;;;0.80;99.90;;;;;;10407822;28;20266;-85
2024/01/28 20:52:57;;;;;;;57.97;30.47;;;0.50;99.90;;;;;;10406487;28;20243;-85
2024/01/28 20:58:00;;;;;;;58.03;29.23;;;0.70;99.90;;;;;;10405865;28;20309;-85
2024/01/28 21:03:02;;;;;;;48.87;27.60;;;1.10;99.90;;;;;;10416029;28;20220;-86
2024/01/28 21:08:05;;;;;;;62.30;40.23;;;1.30;99.90;;;;;;10415174;28;20698;-82
2024/01/28 21:13:08;;;;;;;69.10;37.13;;;2.40;99.90;;;;;;10414814;28;20236;-83
2024/01/28 21:23:57;;;;;;;39.20;22.90;;;2.30;99.90;;;;;;4669180;22;20236;-83
2024/01/28 21:29:03;;;;;;;41.57;24.93;;;2.70;99.90;;;;;;10413378;28;20302;-83
2024/01/28 21:34:06;;;;;;;44.10;26.20;;;2.10;99.90;;;;;;10413340;28;20258;-84
2024/01/28 21:39:09;;;;;;;39.13;23.57;;;1.90;99.90;;;;;;10413553;28;20254;-84
2024/01/28 21:44:12;;;;;;;39.10;21.17;;;2.10;99.90;;;;;;10412156;28;20228;-86
2024/01/28 21:49:15;;;;;;;40.23;22.57;;;2.80;99.90;;;;;;10413022;28;20701;-84
2024/01/28 21:54:17;;;;;;;38.83;22.43;;;3.00;99.90;;;;;;10072684;28;10000509;-84
2024/01/28 21:59:20;;;;;;;36.07;22.27;;;2.60;99.90;;;;;;10424928;28;20679;-84
2024/01/28 22:04:22;;;;;;;35.93;21.37;;;2.70;99.90;;;;;;10406636;28;20778;-85
2024/01/28 22:09:25;;;;;;;42.27;22.47;;;2.80;99.90;;;;;;10408681;28;20244;-85
2024/01/28 22:14:28;;;;;;;36.30;21.63;;;3.00;99.90;;;;;;10408582;28;20240;-85
2024/01/28 22:19:31;;;;;;;41.17;23.27;;;2.50;99.90;;;;;;10408566;28;20661;-85
2024/01/28 22:24:36;;;;;;;41.17;24.33;;;2.70;99.90;;;;;;10408441;28;20410;-85
2024/01/28 22:29:38;;;;;;;43.60;22.87;;;2.50;99.90;;;;;;10379210;28;20860;-85
2024/01/28 22:34:44;;;;;;;42.47;25.23;;;2.50;99.90;;;;;;10370027;28;20290;-85
2024/01/28 22:39:47;;;;;;;147.70;78.20;;;2.40;99.90;;;;;;10374943;28;20310;-85
2024/01/28 22:44:49;;;;;;;45.57;25.17;;;2.10;99.90;;;;;;10369238;28;20269;-86
2024/01/28 22:49:52;;;;;;;37.30;23.33;;;1.80;99.90;;;;;;10370097;28;20237;-86
2024/01/28 22:54:55;;;;;;;43.60;24.53;;;2.10;99.90;;;;;;10368974;28;20311;-86
2024/01/28 22:59:57;;;;;;;41.70;23.50;;;2.30;99.90;;;;;;10371964;28;20217;-86
2024/01/28 23:05:00;;;;;;;36.77;22.23;;;2.30;99.90;;;;;;10369474;28;20237;-86
2024/01/28 23:10:03;;;;;;;32.03;18.50;;;2.50;99.90;;;;;;10369182;28;20767;-86
2024/01/28 23:15:06;;;;;;;46.93;24.13;;;2.50;99.90;;;;;;10406169;28;20316;-86
2024/01/28 23:20:22;;;;;;;43.07;22.87;;;2.50;99.90;;;;;;10374424;28;20274;-85
2024/01/28 23:25:25;;;;;;;42.97;23.13;;;2.40;99.90;;;;;;10390955;28;20265;-86
2024/01/28 23:30:27;;;;;;;38.60;22.57;;;2.50;99.90;;;;;;10415231;28;20307;-86
2024/01/28 23:35:30;;;;;;;39.50;23.03;;;2.30;99.90;;;;;;10445487;28;20260;-86
2024/01/28 23:40:33;;;;;;;37.17;21.70;;;2.50;99.90;;;;;;10408341;28;20234;-86
2024/01/28 23:45:36;;;;;;;40.90;21.80;;;2.20;99.90;;;;;;10424591;28;20278;-86
2024/01/28 23:50:39;;;;;;;50.57;26.13;;;1.90;99.90;;;;;;10408201;28;20239;-87
2024/01/28 23:55:42;;;;;;;48.10;25.87;;;1.70;99.90;;;;;;10426090;28;20247;-87
